44A weather

Rolle Airfield
San Luis, Arizona, United States

Public forecast

Using degrees Fahrenheit for public forecast. Weather courtesy of forecast.io.

METAR (pilot weather report)

Closest report is Yuma MCAS/Yuma International Airport, 9.5 nm (17.6 km) NNE. Retrieved 2019/08/23 00:57 UTC (15 minutes ago):

KNYL 230057Z 16015KT 7SM FEW150 40/14 A2959 RMK AO2 SLP014 T04000139 $

TAF (pilot weather forecast)

Forecast is more than 12 hours old.

Closest forecast is Yuma MCAS/Yuma International Airport, 9.5 nm (17.6 km) NNE. Retrieved 2014/04/27 15:15 UTC (5 years ago):

TAF TAF COR KNYL 271500Z 2715/2815 VRB06KT 9999 FEW250 QNH2989INS BECMG 2716/2718 26007KT QNH2978INS BECMG 2806/2808 VRB05KT QNH2981INS AUTOMATED SENSOR METWATCH 2715 TIL 2815 TX22/2723Z TN10/2813Z COR 1545